createdAt,value
2018-06-29T00:00:53.875Z,21.20
2018-06-29T00:03:22.230Z,21.30
2018-06-29T00:05:50.545Z,21.30
2018-06-29T00:08:18.973Z,21.30
2018-06-29T00:10:47.299Z,21.30
2018-06-29T00:13:15.689Z,21.30
2018-06-29T00:15:44.050Z,21.30
2018-06-29T00:18:12.394Z,21.20
2018-06-29T00:20:40.710Z,21.20
2018-06-29T00:23:09.149Z,21.20
2018-06-29T00:25:37.470Z,21.10
2018-06-29T00:28:05.876Z,21.10
2018-06-29T00:30:34.219Z,21.10
2018-06-29T00:33:02.583Z,21.00
2018-06-29T00:35:30.906Z,21.00
2018-06-29T00:37:59.326Z,21.10
2018-06-29T00:40:27.662Z,21.10
2018-06-29T00:42:56.012Z,21.10
2018-06-29T00:45:24.402Z,21.10
2018-06-29T00:47:52.769Z,21.20
2018-06-29T00:50:21.094Z,21.20
2018-06-29T00:52:49.459Z,21.20
2018-06-29T00:55:17.851Z,21.20
2018-06-29T00:57:46.177Z,21.20
2018-06-29T01:00:14.550Z,21.10
2018-06-29T01:02:42.897Z,21.20
2018-06-29T01:05:11.268Z,21.20
2018-06-29T01:07:39.665Z,21.10
2018-06-29T01:10:08.030Z,21.10
2018-06-29T01:12:36.373Z,21.10
2018-06-29T01:15:04.976Z,21.10
2018-06-29T01:17:33.374Z,21.10
2018-06-29T01:20:01.742Z,21.10
2018-06-29T01:22:30.101Z,21.10
2018-06-29T01:24:58.617Z,21.20
2018-06-29T01:27:27.103Z,21.20
2018-06-29T01:29:55.449Z,21.10
2018-06-29T01:34:51.912Z,21.10
2018-06-29T01:37:20.355Z,21.10
2018-06-29T01:39:48.727Z,21.00
2018-06-29T01:42:17.070Z,21.00
2018-06-29T01:44:45.558Z,21.00
2018-06-29T01:47:13.947Z,21.00
2018-06-29T01:49:42.358Z,21.00
2018-06-29T01:52:10.717Z,20.90
2018-06-29T01:54:39.170Z,20.90
2018-06-29T01:57:07.542Z,20.90
2018-06-29T01:59:35.921Z,20.90
2018-06-29T02:02:05.062Z,20.90
2018-06-29T02:04:33.418Z,20.90
2018-06-29T02:07:01.877Z,20.90
2018-06-29T02:09:30.299Z,21.00
2018-06-29T02:11:58.655Z,21.00
2018-06-29T02:14:27.040Z,21.00
2018-06-29T02:16:55.415Z,21.00
2018-06-29T02:19:23.822Z,21.00
2018-06-29T02:21:52.146Z,21.00
2018-06-29T02:24:20.497Z,21.00
2018-06-29T02:26:48.826Z,21.00
2018-06-29T02:29:17.197Z,21.00
2018-06-29T02:31:45.555Z,21.00
2018-06-29T02:34:13.921Z,20.90
2018-06-29T02:39:12.130Z,20.80
2018-06-29T02:41:40.691Z,20.80
2018-06-29T02:44:09.069Z,20.80
2018-06-29T02:46:37.787Z,20.80
2018-06-29T02:49:06.242Z,20.80
2018-06-29T02:51:34.977Z,20.80
2018-06-29T02:54:03.398Z,20.80
2018-06-29T02:56:31.763Z,20.80
2018-06-29T02:59:00.117Z,20.80
2018-06-29T03:01:28.502Z,20.80
2018-06-29T03:06:24.919Z,20.90
2018-06-29T03:08:53.341Z,20.90
2018-06-29T03:11:21.745Z,20.90
2018-06-29T03:13:50.133Z,20.90
2018-06-29T03:16:18.527Z,20.90
2018-06-29T03:18:46.855Z,20.90
2018-06-29T03:21:15.242Z,20.90
2018-06-29T03:23:43.582Z,20.90
2018-06-29T03:26:11.933Z,20.90
2018-06-29T03:28:40.283Z,20.90
2018-06-29T03:31:08.669Z,20.90
2018-06-29T03:33:37.010Z,20.90
2018-06-29T03:36:05.384Z,20.90
2018-06-29T03:38:33.726Z,20.90
2018-06-29T03:41:02.138Z,20.90
2018-06-29T03:43:30.518Z,20.90
2018-06-29T03:45:58.873Z,20.90
2018-06-29T03:48:27.256Z,21.00
2018-06-29T03:50:55.661Z,20.90
2018-06-29T03:53:24.015Z,20.90
2018-06-29T03:55:52.610Z,20.90
2018-06-29T03:58:21.105Z,20.90
2018-06-29T04:00:49.482Z,20.90
2018-06-29T04:03:17.867Z,20.90
2018-06-29T04:05:46.300Z,20.90
2018-06-29T04:08:14.669Z,20.90
2018-06-29T04:10:43.241Z,21.00
2018-06-29T04:13:11.579Z,21.00
2018-06-29T04:15:39.933Z,21.00
2018-06-29T04:18:08.278Z,21.00
2018-06-29T04:20:36.686Z,21.10
2018-06-29T04:23:05.314Z,21.10
2018-06-29T04:25:33.709Z,21.10
2018-06-29T04:28:02.051Z,21.10
2018-06-29T04:30:30.453Z,21.10
2018-06-29T04:32:58.773Z,21.10
2018-06-29T04:35:27.134Z,21.10
2018-06-29T04:37:55.566Z,21.10
2018-06-29T04:40:23.907Z,21.20
2018-06-29T04:42:52.335Z,21.20
2018-06-29T04:45:20.629Z,21.20
2018-06-29T04:47:49.249Z,21.20
2018-06-29T04:50:17.694Z,21.20
2018-06-29T04:52:46.058Z,21.20
2018-06-29T04:55:14.403Z,21.20
2018-06-29T04:57:42.781Z,21.20
2018-06-29T05:00:11.164Z,21.20
2018-06-29T05:02:39.565Z,21.20
2018-06-29T05:05:07.918Z,21.20
2018-06-29T05:07:39.283Z,21.20
2018-06-29T05:10:07.646Z,21.20
2018-06-29T05:12:36.126Z,21.20
2018-06-29T05:15:04.524Z,21.10
2018-06-29T05:17:32.885Z,21.20
2018-06-29T05:20:01.219Z,21.20
2018-06-29T05:22:29.636Z,21.20
2018-06-29T05:24:58.030Z,21.20
2018-06-29T05:27:26.466Z,21.20
2018-06-29T05:29:54.908Z,21.20
2018-06-29T05:32:23.276Z,21.20
2018-06-29T05:34:51.645Z,21.20
2018-06-29T05:37:20.084Z,21.20
2018-06-29T05:39:48.810Z,21.20
2018-06-29T05:42:17.561Z,21.20
2018-06-29T05:49:42.268Z,21.20
2018-06-29T05:52:10.689Z,21.30
2018-06-29T05:54:39.089Z,21.30
2018-06-29T05:57:07.519Z,21.30
2018-06-29T05:59:35.939Z,21.40
2018-06-29T06:02:04.468Z,21.40
2018-06-29T06:04:32.831Z,21.40
2018-06-29T06:07:01.359Z,21.40
2018-06-29T06:09:29.721Z,21.40
2018-06-29T06:11:58.103Z,21.50
2018-06-29T06:14:26.445Z,21.50
2018-06-29T06:16:54.821Z,21.50
2018-06-29T06:19:34.402Z,21.50
2018-06-29T06:22:02.765Z,21.50
2018-06-29T06:24:31.113Z,21.60
2018-06-29T06:26:59.570Z,21.60
2018-06-29T06:29:27.902Z,21.60
2018-06-29T06:31:56.232Z,21.50
2018-06-29T06:34:24.617Z,21.60
2018-06-29T06:36:53.310Z,21.60
2018-06-29T06:39:21.674Z,21.70
2018-06-29T06:41:49.991Z,21.70
2018-06-29T06:44:18.368Z,21.80
2018-06-29T06:46:46.722Z,21.90
2018-06-29T06:49:15.095Z,21.90
2018-06-29T06:51:43.421Z,21.90
2018-06-29T06:54:11.783Z,21.90
2018-06-29T06:56:40.399Z,21.90
2018-06-29T06:59:08.878Z,21.90
2018-06-29T07:01:37.219Z,21.90
2018-06-29T07:04:05.625Z,21.90
2018-06-29T07:06:34.006Z,21.90
2018-06-29T07:09:02.455Z,21.90
2018-06-29T07:11:30.836Z,21.90
2018-06-29T07:13:59.243Z,21.90
2018-06-29T07:16:27.570Z,21.80
2018-06-29T07:18:55.942Z,21.90
2018-06-29T07:21:24.294Z,21.90
2018-06-29T07:23:52.670Z,22.00
2018-06-29T07:26:21.083Z,22.20
2018-06-29T07:28:49.525Z,22.30
2018-06-29T07:31:17.859Z,22.50
2018-06-29T07:33:46.236Z,22.70
2018-06-29T07:36:15.326Z,23.00
2018-06-29T07:38:43.766Z,23.10
2018-06-29T07:41:12.150Z,23.70
2018-06-29T07:43:40.713Z,23.40
2018-06-29T07:46:09.716Z,23.60
2018-06-29T07:48:38.107Z,23.80
2018-06-29T07:51:06.951Z,24.00
2018-06-29T07:53:35.329Z,24.10
2018-06-29T07:56:03.766Z,24.30
2018-06-29T07:58:32.280Z,24.40
2018-06-29T08:01:03.314Z,24.50
2018-06-29T08:03:33.484Z,24.70
2018-06-29T08:06:01.848Z,24.80
2018-06-29T08:08:30.487Z,24.90
2018-06-29T08:10:59.262Z,25.10
2018-06-29T08:13:28.282Z,25.30
2018-06-29T08:15:56.674Z,25.50
2018-06-29T08:18:25.332Z,25.80
2018-06-29T08:20:54.038Z,25.90
2018-06-29T08:23:26.844Z,26.00
2018-06-29T08:25:56.041Z,26.10
2018-06-29T08:28:24.379Z,26.20
2018-06-29T08:30:52.803Z,26.20
2018-06-29T08:33:21.237Z,26.30
2018-06-29T08:35:49.602Z,26.30
2018-06-29T08:38:17.934Z,26.50
2018-06-29T08:40:46.271Z,26.70
2018-06-29T08:43:14.578Z,26.90
2018-06-29T08:45:42.987Z,27.10
2018-06-29T08:48:11.441Z,27.20
2018-06-29T08:50:39.798Z,27.20
2018-06-29T08:53:08.427Z,27.20
2018-06-29T08:55:36.798Z,27.20
2018-06-29T08:58:05.196Z,27.30
2018-06-29T09:00:33.561Z,27.40
2018-06-29T09:03:01.946Z,27.30
2018-06-29T09:05:30.409Z,27.30
2018-06-29T09:07:58.751Z,27.30
2018-06-29T09:10:27.089Z,27.20
2018-06-29T09:12:55.473Z,27.20
2018-06-29T09:15:23.875Z,27.20
2018-06-29T09:17:52.220Z,27.10
2018-06-29T09:20:20.575Z,27.10
2018-06-29T09:22:49.031Z,27.10
2018-06-29T09:25:17.636Z,27.00
2018-06-29T09:27:46.047Z,27.10
2018-06-29T09:30:14.445Z,26.90
2018-06-29T09:32:42.842Z,26.90
2018-06-29T09:35:11.682Z,27.00
2018-06-29T09:37:40.117Z,27.10
2018-06-29T09:40:08.526Z,27.30
2018-06-29T09:42:36.920Z,27.50
2018-06-29T09:45:05.299Z,27.60
2018-06-29T09:47:33.638Z,27.80
2018-06-29T09:50:02.010Z,28.00
2018-06-29T09:52:30.364Z,28.20
2018-06-29T09:54:58.797Z,28.40
2018-06-29T09:57:27.130Z,28.60
2018-06-29T09:59:55.643Z,28.90
2018-06-29T10:02:23.996Z,29.10
2018-06-29T10:04:52.356Z,29.30
2018-06-29T10:07:20.809Z,29.60
2018-06-29T10:09:49.166Z,29.70
2018-06-29T10:12:17.550Z,29.80
2018-06-29T10:14:45.889Z,30.20
2018-06-29T10:17:14.318Z,30.60
2018-06-29T10:19:42.862Z,30.80
2018-06-29T10:22:11.241Z,31.10
2018-06-29T10:24:39.591Z,31.50
2018-06-29T10:27:08.034Z,31.90
2018-06-29T10:29:36.418Z,32.30
2018-06-29T10:32:04.853Z,32.50
2018-06-29T10:34:33.219Z,32.80
2018-06-29T10:37:01.606Z,33.10
2018-06-29T10:39:29.972Z,33.10
2018-06-29T10:41:58.375Z,33.50
2018-06-29T10:46:54.903Z,33.40
2018-06-29T10:49:23.259Z,33.40
2018-06-29T10:51:51.612Z,33.60
2018-06-29T10:54:19.962Z,33.90
2018-06-29T10:56:48.445Z,34.20
2018-06-29T10:59:16.800Z,33.70
2018-06-29T11:01:45.224Z,33.10
2018-06-29T11:04:13.748Z,32.60
2018-06-29T11:06:42.162Z,32.20
2018-06-29T11:09:11.070Z,31.70
2018-06-29T11:11:39.482Z,31.40
2018-06-29T11:14:08.475Z,31.20
2018-06-29T11:16:36.877Z,31.10
2018-06-29T11:19:05.633Z,31.00
2018-06-29T11:21:34.050Z,31.40
2018-06-29T11:24:02.413Z,32.10
2018-06-29T11:26:30.790Z,32.40
2018-06-29T11:28:59.122Z,33.00
2018-06-29T11:31:28.319Z,33.40
2018-06-29T11:33:56.709Z,33.60
2018-06-29T11:36:25.095Z,33.50
2018-06-29T11:38:53.454Z,33.30
2018-06-29T11:41:21.889Z,33.00
2018-06-29T11:43:50.331Z,32.80
2018-06-29T11:46:18.758Z,32.70
2018-06-29T11:48:47.236Z,32.80
2018-06-29T11:51:15.638Z,33.00
2018-06-29T11:53:44.121Z,33.30
2018-06-29T11:56:12.458Z,33.30
2018-06-29T11:58:40.839Z,33.00
2018-06-29T12:01:09.209Z,32.70
2018-06-29T12:03:37.586Z,32.50
2018-06-29T12:06:05.922Z,32.30
2018-06-29T12:08:34.306Z,32.30
2018-06-29T12:11:02.762Z,32.40
2018-06-29T12:13:31.148Z,32.40
2018-06-29T12:15:59.497Z,32.30
2018-06-29T12:18:27.905Z,32.20
2018-06-29T12:20:56.246Z,32.30
2018-06-29T12:23:24.682Z,32.30
2018-06-29T12:25:52.970Z,32.40
2018-06-29T12:28:21.325Z,32.70
2018-06-29T12:30:49.817Z,32.90
2018-06-29T12:33:18.201Z,33.20
2018-06-29T12:35:46.579Z,33.50
2018-06-29T12:38:14.931Z,34.20
2018-06-29T12:40:43.364Z,34.90
2018-06-29T12:43:11.981Z,35.20
2018-06-29T12:45:40.388Z,35.30
2018-06-29T12:48:09.098Z,35.90
2018-06-29T12:50:37.490Z,37.20
2018-06-29T12:53:06.277Z,38.00
2018-06-29T12:55:34.711Z,38.00
2018-06-29T12:58:03.264Z,37.70
2018-06-29T13:00:31.615Z,37.30
2018-06-29T13:03:00.026Z,37.00
2018-06-29T13:05:28.439Z,36.50
2018-06-29T13:07:56.834Z,36.10
2018-06-29T13:10:25.214Z,35.80
2018-06-29T13:12:54.045Z,35.30
2018-06-29T13:15:22.405Z,34.80
2018-06-29T13:17:50.795Z,34.40
2018-06-29T13:20:19.134Z,34.20
2018-06-29T13:22:47.473Z,34.00
2018-06-29T13:25:15.910Z,34.10
2018-06-29T13:27:44.177Z,34.10
2018-06-29T13:30:12.595Z,34.20
2018-06-29T13:32:40.986Z,34.40
2018-06-29T13:35:09.324Z,34.60
2018-06-29T13:37:37.718Z,34.50
2018-06-29T13:40:06.103Z,34.40
2018-06-29T13:42:34.435Z,34.50
2018-06-29T13:45:02.794Z,34.60
2018-06-29T13:47:31.178Z,34.70
2018-06-29T13:49:59.559Z,35.40
2018-06-29T13:52:27.968Z,36.50
2018-06-29T13:54:56.350Z,38.40
2018-06-29T13:57:24.664Z,40.20
2018-06-29T13:59:53.060Z,41.50
2018-06-29T14:02:21.396Z,42.50
2018-06-29T14:04:49.878Z,43.20
2018-06-29T14:07:18.287Z,44.00
2018-06-29T14:09:46.683Z,44.40
2018-06-29T14:12:15.049Z,44.90
2018-06-29T14:14:43.406Z,45.20
2018-06-29T14:17:11.748Z,45.00
2018-06-29T14:19:40.138Z,45.10
2018-06-29T14:22:08.484Z,45.10
2018-06-29T14:24:36.886Z,45.10
2018-06-29T14:27:05.486Z,45.20
2018-06-29T14:29:33.923Z,45.20
2018-06-29T14:32:02.399Z,44.90
2018-06-29T14:34:30.866Z,45.10
2018-06-29T14:36:59.209Z,45.70
2018-06-29T14:39:27.634Z,46.40
2018-06-29T14:41:56.072Z,46.60
2018-06-29T14:44:24.459Z,47.00
2018-06-29T14:46:52.816Z,47.30
2018-06-29T14:49:21.248Z,47.00
2018-06-29T14:51:49.602Z,46.60
2018-06-29T14:54:18.265Z,45.40
2018-06-29T14:56:46.614Z,43.40
2018-06-29T15:01:43.090Z,40.30
2018-06-29T15:04:11.450Z,40.50
2018-06-29T15:06:39.813Z,41.30
2018-06-29T15:09:09.081Z,41.60
2018-06-29T15:11:37.774Z,41.30
2018-06-29T15:14:06.173Z,40.90
2018-06-29T15:16:34.562Z,41.60
2018-06-29T15:19:02.906Z,42.90
2018-06-29T15:21:31.366Z,44.00
2018-06-29T15:24:00.754Z,44.30
2018-06-29T15:26:29.143Z,43.60
2018-06-29T15:28:57.486Z,42.50
2018-06-29T15:31:26.001Z,41.30
2018-06-29T15:33:54.363Z,40.70
2018-06-29T15:36:22.794Z,40.90
2018-06-29T15:38:51.156Z,40.50
2018-06-29T15:41:19.646Z,39.80
2018-06-29T15:43:48.397Z,38.70
2018-06-29T15:46:16.806Z,37.80
2018-06-29T15:48:45.175Z,36.80
2018-06-29T15:51:13.577Z,35.80
2018-06-29T15:53:41.938Z,35.20
2018-06-29T15:56:10.562Z,34.70
2018-06-29T15:58:39.004Z,35.00
2018-06-29T16:01:07.390Z,36.20
2018-06-29T16:03:35.745Z,37.80
2018-06-29T16:06:04.283Z,39.50
2018-06-29T16:08:32.718Z,41.00
2018-06-29T16:11:01.180Z,42.20
2018-06-29T16:13:29.575Z,43.20
2018-06-29T16:15:58.408Z,44.10
2018-06-29T16:18:26.800Z,45.10
2018-06-29T16:20:55.211Z,45.80
2018-06-29T16:23:23.603Z,46.10
2018-06-29T16:25:51.966Z,46.40
2018-06-29T16:28:20.426Z,46.50
2018-06-29T16:30:48.815Z,46.30
2018-06-29T16:33:17.159Z,46.30
2018-06-29T16:35:45.570Z,46.30
2018-06-29T16:38:14.006Z,46.10
2018-06-29T16:40:42.420Z,45.50
2018-06-29T16:43:10.900Z,44.50
2018-06-29T16:45:39.309Z,42.50
2018-06-29T16:48:07.800Z,40.60
2018-06-29T16:50:36.433Z,38.90
2018-06-29T16:53:04.975Z,37.50
2018-06-29T16:55:33.335Z,36.40
2018-06-29T16:58:01.761Z,35.60
2018-06-29T17:00:30.110Z,35.20
2018-06-29T17:02:58.486Z,35.80
2018-06-29T17:05:26.867Z,36.30
2018-06-29T17:07:55.409Z,36.20
2018-06-29T17:10:24.184Z,35.70
2018-06-29T17:12:52.591Z,35.10
2018-06-29T17:15:20.978Z,34.70
2018-06-29T17:17:49.443Z,35.30
2018-06-29T17:20:17.790Z,36.60
2018-06-29T17:22:46.164Z,37.90
2018-06-29T17:25:14.516Z,39.00
2018-06-29T17:27:42.918Z,39.90
2018-06-29T17:30:11.290Z,40.30
2018-06-29T17:32:39.671Z,40.70
2018-06-29T17:35:08.047Z,40.50
2018-06-29T17:37:36.418Z,39.90
2018-06-29T17:40:05.184Z,39.50
2018-06-29T17:42:33.518Z,38.90
2018-06-29T17:45:01.830Z,38.70
2018-06-29T17:47:30.261Z,38.50
2018-06-29T17:49:58.617Z,38.40
2018-06-29T17:52:27.028Z,38.30
2018-06-29T17:54:55.477Z,37.80
2018-06-29T17:57:23.808Z,37.80
2018-06-29T17:59:52.324Z,37.90
2018-06-29T18:02:20.627Z,37.50
2018-06-29T18:04:48.977Z,36.60
2018-06-29T18:07:17.500Z,36.00
2018-06-29T18:09:46.052Z,35.50
2018-06-29T18:12:14.603Z,35.10
2018-06-29T18:14:43.111Z,34.70
2018-06-29T18:17:11.558Z,34.10
2018-06-29T18:19:40.334Z,33.50
2018-06-29T18:22:08.722Z,32.60
2018-06-29T18:24:37.056Z,32.50
2018-06-29T18:27:06.152Z,32.10
2018-06-29T18:29:35.198Z,31.70
2018-06-29T18:32:03.722Z,31.30
2018-06-29T18:34:32.205Z,31.10
2018-06-29T18:37:00.706Z,30.90
2018-06-29T18:39:29.207Z,30.70
2018-06-29T18:41:58.019Z,31.10
2018-06-29T18:44:26.469Z,31.60
2018-06-29T18:46:54.781Z,32.10
2018-06-29T18:51:51.206Z,32.70
2018-06-29T18:54:19.557Z,32.80
2018-06-29T18:56:47.914Z,32.90
2018-06-29T18:59:16.266Z,32.90
2018-06-29T19:01:44.578Z,32.90
2018-06-29T19:04:12.910Z,32.80
2018-06-29T19:06:41.261Z,32.50
2018-06-29T19:09:10.647Z,32.30
2018-06-29T19:11:39.287Z,32.00
2018-06-29T19:14:07.813Z,31.60
2018-06-29T19:16:36.696Z,31.10
2018-06-29T19:19:05.083Z,30.60
2018-06-29T19:21:33.430Z,30.10
2018-06-29T19:24:01.836Z,29.70
2018-06-29T19:26:30.171Z,29.30
2018-06-29T19:28:58.547Z,29.00
2018-06-29T19:31:26.986Z,28.70
2018-06-29T19:33:55.294Z,28.50
2018-06-29T19:36:23.668Z,28.30
2018-06-29T19:38:52.144Z,28.10
2018-06-29T19:41:20.486Z,27.90
2018-06-29T19:43:48.842Z,27.80
2018-06-29T19:46:17.198Z,27.60
2018-06-29T19:48:45.619Z,27.50
2018-06-29T19:51:13.962Z,27.40
2018-06-29T19:53:42.341Z,27.30
2018-06-29T19:56:10.743Z,27.20
2018-06-29T19:58:39.118Z,27.10
2018-06-29T20:01:07.487Z,27.00
2018-06-29T20:03:35.845Z,26.90
2018-06-29T20:06:04.350Z,26.80
2018-06-29T20:08:32.725Z,26.70
2018-06-29T20:11:01.201Z,26.70
2018-06-29T20:13:29.597Z,26.60
2018-06-29T20:15:58.023Z,26.50
2018-06-29T20:18:26.411Z,26.40
2018-06-29T20:20:54.750Z,26.30
2018-06-29T20:25:51.218Z,26.30
2018-06-29T20:28:19.578Z,26.20
2018-06-29T20:30:47.970Z,26.20
2018-06-29T20:33:16.497Z,26.10
2018-06-29T20:35:44.771Z,26.10
2018-06-29T20:38:14.207Z,26.10
2018-06-29T20:40:42.531Z,26.00
2018-06-29T20:43:10.933Z,26.00
2018-06-29T20:45:39.318Z,25.90
2018-06-29T20:48:07.677Z,25.90
2018-06-29T20:50:36.214Z,25.90
2018-06-29T20:53:04.846Z,25.80
2018-06-29T20:55:33.222Z,25.70
2018-06-29T20:58:01.802Z,25.70
2018-06-29T21:00:30.154Z,25.60
2018-06-29T21:02:58.615Z,25.60
2018-06-29T21:05:26.999Z,25.50
2018-06-29T21:07:55.765Z,25.50
2018-06-29T21:10:24.215Z,25.40
2018-06-29T21:12:52.615Z,25.30
2018-06-29T21:15:20.979Z,25.20
2018-06-29T21:17:49.340Z,25.10
2018-06-29T21:20:17.731Z,25.00
2018-06-29T21:22:46.051Z,24.90
2018-06-29T21:25:14.518Z,24.80
2018-06-29T21:27:43.129Z,24.80
2018-06-29T21:30:11.638Z,24.70
2018-06-29T21:32:40.189Z,24.70
2018-06-29T21:35:08.577Z,24.60
2018-06-29T21:37:37.119Z,24.50
2018-06-29T21:40:05.482Z,24.50
2018-06-29T21:42:34.007Z,24.50
2018-06-29T21:45:02.608Z,24.40
2018-06-29T21:47:31.028Z,24.40
2018-06-29T21:49:59.423Z,24.30
2018-06-29T21:52:27.782Z,24.30
2018-06-29T21:54:56.165Z,24.30
2018-06-29T21:57:24.623Z,24.20
2018-06-29T21:59:53.019Z,24.20
2018-06-29T22:02:21.425Z,24.10
2018-06-29T22:04:49.880Z,24.00
2018-06-29T22:07:18.393Z,23.90
2018-06-29T22:09:46.750Z,23.90
2018-06-29T22:12:15.305Z,23.80
2018-06-29T22:14:43.774Z,23.80
2018-06-29T22:17:12.225Z,23.70
2018-06-29T22:19:40.629Z,23.70
2018-06-29T22:22:09.175Z,23.60
2018-06-29T22:24:37.518Z,23.60
2018-06-29T22:27:05.905Z,23.50
2018-06-29T22:29:34.238Z,23.50
2018-06-29T22:32:02.624Z,23.50
2018-06-29T22:34:30.982Z,23.50
2018-06-29T22:36:59.467Z,23.50
2018-06-29T22:39:27.826Z,23.50
2018-06-29T22:41:56.198Z,23.40
2018-06-29T22:44:24.573Z,23.40
2018-06-29T22:46:52.954Z,23.30
2018-06-29T22:49:21.385Z,23.30
2018-06-29T22:51:49.819Z,23.30
2018-06-29T22:54:18.166Z,22.10
2018-06-29T22:56:46.553Z,23.30
2018-06-29T22:59:14.993Z,23.30
2018-06-29T23:01:43.362Z,23.30
2018-06-29T23:06:44.251Z,23.20
2018-06-29T23:09:12.654Z,23.20
2018-06-29T23:11:41.014Z,23.10
2018-06-29T23:14:09.441Z,23.00
2018-06-29T23:16:37.794Z,23.00
2018-06-29T23:19:06.142Z,23.00
2018-06-29T23:21:34.625Z,23.00
2018-06-29T23:24:03.009Z,23.00
2018-06-29T23:26:31.369Z,22.90
2018-06-29T23:28:59.793Z,22.90
2018-06-29T23:31:28.203Z,22.90
2018-06-29T23:33:56.535Z,22.90
2018-06-29T23:36:24.907Z,22.90
2018-06-29T23:38:53.237Z,22.80
2018-06-29T23:41:21.618Z,22.80
2018-06-29T23:43:49.942Z,22.80
2018-06-29T23:46:18.357Z,22.70
2018-06-29T23:48:46.710Z,22.60
2018-06-29T23:51:15.046Z,22.60
2018-06-29T23:53:43.405Z,22.50
2018-06-29T23:56:11.766Z,22.50
2018-06-29T23:58:40.106Z,22.50
